Demopolis, Alabama
Current Conditions -  °F | °C
As of 7:35 PM on Tuesday 25 Nov 2014 (Local Time) from KDYA Reporting Station
Clear Clear  
Wind Chill:   Ceiling: Unl
Heat Index:   Visibility: 10mi
Dew Point: -2°   Wind: 7mph
Humidity: 46%   Direction: 320°NW
Pressure: 30.17"   Gusts: NA
Location:  32.5°N, 87.84°W
Report Text: KDYA 260135Z AUTO 32006KT 10SM CLR 09/M02 A3017 RMK AO2 T00921018
Loading
Personal Weather Stations






























Interactive Weather Map New forecast layout! Learn more

10-Day Weather Forecast

Advertisements
Track Severe Weather on mobile